sensor_id;sensor_type;location;lat;lon;timestamp;pressure;altitude;pressure_sealevel;temperature;humidity
12626;BME280;6378;42.684;23.372;2022-08-19T00:01:20;94790.97;;;23.44;74.92
12626;BME280;6378;42.684;23.372;2022-08-19T00:03:45;94784.84;;;23.23;77.11
12626;BME280;6378;42.684;23.372;2022-08-19T00:06:11;94806.88;;;23.36;77.57
12626;BME280;6378;42.684;23.372;2022-08-19T00:08:37;94803.03;;;23.50;76.59
12626;BME280;6378;42.684;23.372;2022-08-19T00:11:03;94805.28;;;23.67;74.73
12626;BME280;6378;42.684;23.372;2022-08-19T00:13:28;94799.41;;;23.94;73.69
12626;BME280;6378;42.684;23.372;2022-08-19T00:15:55;94799.47;;;23.78;73.35
12626;BME280;6378;42.684;23.372;2022-08-19T00:18:20;94808.50;;;23.79;74.46
12626;BME280;6378;42.684;23.372;2022-08-19T00:20:46;94792.53;;;23.73;73.61
12626;BME280;6378;42.684;23.372;2022-08-19T00:23:11;94824.16;;;23.94;73.29
12626;BME280;6378;42.684;23.372;2022-08-19T00:25:37;94820.03;;;23.73;75.49
12626;BME280;6378;42.684;23.372;2022-08-19T00:28:03;94825.00;;;23.79;75.61
12626;BME280;6378;42.684;23.372;2022-08-19T00:30:29;94812.50;;;23.61;76.84
12626;BME280;6378;42.684;23.372;2022-08-19T00:32:55;94822.44;;;23.71;77.04
12626;BME280;6378;42.684;23.372;2022-08-19T00:35:21;94817.28;;;23.45;78.55
12626;BME280;6378;42.684;23.372;2022-08-19T00:37:48;94816.22;;;23.39;79.37
12626;BME280;6378;42.684;23.372;2022-08-19T00:40:14;94818.56;;;23.24;79.78
12626;BME280;6378;42.684;23.372;2022-08-19T00:42:40;94818.72;;;23.49;78.84
12626;BME280;6378;42.684;23.372;2022-08-19T00:45:13;94815.72;;;23.27;80.92
12626;BME280;6378;42.684;23.372;2022-08-19T00:47:40;94813.78;;;23.12;81.62
12626;BME280;6378;42.684;23.372;2022-08-19T00:50:06;94806.19;;;22.87;82.77
12626;BME280;6378;42.684;23.372;2022-08-19T00:52:35;94811.22;;;22.88;84.17
12626;BME280;6378;42.684;23.372;2022-08-19T00:55:05;94808.22;;;22.83;84.70
12626;BME280;6378;42.684;23.372;2022-08-19T00:57:36;94817.16;;;22.87;82.47
12626;BME280;6378;42.684;23.372;2022-08-19T01:00:07;94814.50;;;22.83;83.27
12626;BME280;6378;42.684;23.372;2022-08-19T01:02:35;94799.72;;;22.61;85.29
12626;BME280;6378;42.684;23.372;2022-08-19T01:05:08;94799.28;;;22.63;85.64
12626;BME280;6378;42.684;23.372;2022-08-19T01:07:36;94821.72;;;22.41;87.50
12626;BME280;6378;42.684;23.372;2022-08-19T01:10:05;94816.53;;;22.47;86.98
12626;BME280;6378;42.684;23.372;2022-08-19T01:12:31;94811.03;;;22.47;86.78
12626;BME280;6378;42.684;23.372;2022-08-19T01:14:56;94814.66;;;22.24;88.77
12626;BME280;6378;42.684;23.372;2022-08-19T01:17:23;94806.88;;;22.39;87.45
12626;BME280;6378;42.684;23.372;2022-08-19T01:19:49;94813.00;;;22.46;87.85
12626;BME280;6378;42.684;23.372;2022-08-19T01:22:19;94811.03;;;22.63;86.38
12626;BME280;6378;42.684;23.372;2022-08-19T01:24:47;94819.34;;;22.60;86.00
12626;BME280;6378;42.684;23.372;2022-08-19T01:27:12;94819.34;;;22.60;86.49
12626;BME280;6378;42.684;23.372;2022-08-19T01:29:40;94812.94;;;22.66;86.47
12626;BME280;6378;42.684;23.372;2022-08-19T01:32:08;94801.47;;;22.71;85.34
12626;BME280;6378;42.684;23.372;2022-08-19T01:34:34;94795.34;;;22.64;84.98
12626;BME280;6378;42.684;23.372;2022-08-19T01:37:00;94806.97;;;22.71;86.07
12626;BME280;6378;42.684;23.372;2022-08-19T01:39:31;94805.72;;;22.56;86.74
12626;BME280;6378;42.684;23.372;2022-08-19T01:41:57;94802.69;;;22.18;90.41
12626;BME280;6378;42.684;23.372;2022-08-19T01:44:22;94807.84;;;22.32;90.07
12626;BME280;6378;42.684;23.372;2022-08-19T01:46:50;94812.91;;;21.98;92.95
12626;BME280;6378;42.684;23.372;2022-08-19T01:49:19;94813.09;;;21.87;94.70
12626;BME280;6378;42.684;23.372;2022-08-19T01:51:45;94813.38;;;21.93;94.80
12626;BME280;6378;42.684;23.372;2022-08-19T01:54:12;94812.31;;;21.87;95.91
12626;BME280;6378;42.684;23.372;2022-08-19T01:56:38;94817.94;;;21.99;94.63
12626;BME280;6378;42.684;23.372;2022-08-19T01:59:08;94809.69;;;22.19;92.54
12626;BME280;6378;42.684;23.372;2022-08-19T02:01:35;94806.69;;;22.14;91.36
12626;BME280;6378;42.684;23.372;2022-08-19T02:04:00;94803.41;;;22.19;90.83
12626;BME280;6378;42.684;23.372;2022-08-19T02:06:26;94808.25;;;22.31;90.01
12626;BME280;6378;42.684;23.372;2022-08-19T02:08:53;94813.09;;;22.43;89.73
12626;BME280;6378;42.684;23.372;2022-08-19T02:11:21;94825.09;;;22.65;87.80
12626;BME280;6378;42.684;23.372;2022-08-19T02:13:48;94805.81;;;22.53;87.38
12626;BME280;6378;42.684;23.372;2022-08-19T02:16:16;94811.81;;;22.64;86.53
12626;BME280;6378;42.684;23.372;2022-08-19T02:18:41;94810.69;;;22.61;84.95
12626;BME280;6378;42.684;23.372;2022-08-19T02:21:07;94810.59;;;22.65;85.41
12626;BME280;6378;42.684;23.372;2022-08-19T02:23:32;94800.91;;;22.60;85.84
12626;BME280;6378;42.684;23.372;2022-08-19T02:25:58;94816.63;;;22.92;84.73
12626;BME280;6378;42.684;23.372;2022-08-19T02:28:23;94802.69;;;22.86;84.04
12626;BME280;6378;42.684;23.372;2022-08-19T02:30:48;94816.38;;;22.70;86.25
12626;BME280;6378;42.684;23.372;2022-08-19T02:33:14;94817.03;;;22.58;88.04
12626;BME280;6378;42.684;23.372;2022-08-19T02:35:46;94821.31;;;22.59;88.19
12626;BME280;6378;42.684;23.372;2022-08-19T02:38:12;94823.72;;;22.57;87.98
12626;BME280;6378;42.684;23.372;2022-08-19T02:40:53;94818.41;;;22.50;89.29
12626;BME280;6378;42.684;23.372;2022-08-19T02:43:19;94823.00;;;22.37;89.33
12626;BME280;6378;42.684;23.372;2022-08-19T02:45:45;94826.22;;;22.52;88.07
12626;BME280;6378;42.684;23.372;2022-08-19T02:48:12;94819.00;;;22.41;88.76
12626;BME280;6378;42.684;23.372;2022-08-19T02:50:39;94807.53;;;22.11;90.71
12626;BME280;6378;42.684;23.372;2022-08-19T02:53:05;94822.69;;;21.56;96.85
12626;BME280;6378;42.684;23.372;2022-08-19T02:55:32;94815.03;;;21.47;99.88
12626;BME280;6378;42.684;23.372;2022-08-19T02:57:58;94806.22;;;21.40;98.14
12626;BME280;6378;42.684;23.372;2022-08-19T03:00:25;94826.28;;;21.53;99.54
12626;BME280;6378;42.684;23.372;2022-08-19T03:02:51;94828.59;;;21.35;100.00
12626;BME280;6378;42.684;23.372;2022-08-19T03:05:17;94831.25;;;21.38;100.00
12626;BME280;6378;42.684;23.372;2022-08-19T03:07:43;94827.53;;;21.29;100.00
12626;BME280;6378;42.684;23.372;2022-08-19T03:10:08;94814.81;;;21.18;100.00
12626;BME280;6378;42.684;23.372;2022-08-19T03:12:38;94814.84;;;21.38;100.00
12626;BME280;6378;42.684;23.372;2022-08-19T03:15:07;94814.69;;;21.45;99.50
12626;BME280;6378;42.684;23.372;2022-08-19T03:17:34;94820.38;;;21.35;100.00
12626;BME280;6378;42.684;23.372;2022-08-19T03:20:00;94815.03;;;21.47;100.00
12626;BME280;6378;42.684;23.372;2022-08-19T03:22:26;94815.53;;;21.62;99.94
12626;BME280;6378;42.684;23.372;2022-08-19T03:24:51;94811.41;;;21.54;99.26
12626;BME280;6378;42.684;23.372;2022-08-19T03:27:17;94825.09;;;21.54;100.00
12626;BME280;6378;42.684;23.372;2022-08-19T03:29:43;94822.34;;;20.88;100.00
12626;BME280;6378;42.684;23.372;2022-08-19T03:32:09;94827.28;;;20.96;100.00
12626;BME280;6378;42.684;23.372;2022-08-19T03:34:37;94824.19;;;21.17;100.00
12626;BME280;6378;42.684;23.372;2022-08-19T03:37:08;94813.94;;;21.22;100.00
12626;BME280;6378;42.684;23.372;2022-08-19T03:39:36;94816.28;;;21.00;100.00
12626;BME280;6378;42.684;23.372;2022-08-19T03:42:02;94834.28;;;20.97;100.00
12626;BME280;6378;42.684;23.372;2022-08-19T03:44:29;94814.59;;;20.83;100.00
12626;BME280;6378;42.684;23.372;2022-08-19T03:46:57;94837.00;;;21.01;100.00
12626;BME280;6378;42.684;23.372;2022-08-19T03:49:25;94836.84;;;21.08;100.00
12626;BME280;6378;42.684;23.372;2022-08-19T03:51:53;94840.06;;;21.03;100.00
12626;BME280;6378;42.684;23.372;2022-08-19T03:54:21;94856.75;;;21.35;100.00
12626;BME280;6378;42.684;23.372;2022-08-19T03:56:49;94840.75;;;21.53;100.00
12626;BME280;6378;42.684;23.372;2022-08-19T03:59:20;94850.94;;;21.92;97.78
12626;BME280;6378;42.684;23.372;2022-08-19T04:01:47;94855.13;;;22.00;96.74
12626;BME280;6378;42.684;23.372;2022-08-19T04:04:12;94859.19;;;22.12;95.43
12626;BME280;6378;42.684;23.372;2022-08-19T04:06:39;94861.69;;;22.42;92.98
12626;BME280;6378;42.684;23.372;2022-08-19T04:09:07;94843.50;;;22.48;90.54
12626;BME280;6378;42.684;23.372;2022-08-19T04:11:37;94857.81;;;23.08;87.93
12626;BME280;6378;42.684;23.372;2022-08-19T04:14:05;94864.03;;;23.41;84.52
12626;BME280;6378;42.684;23.372;2022-08-19T04:16:31;94860.25;;;23.80;80.50
12626;BME280;6378;42.684;23.372;2022-08-19T04:19:00;94866.84;;;23.99;78.93
12626;BME280;6378;42.684;23.372;2022-08-19T04:21:27;94871.31;;;23.93;76.98
12626;BME280;6378;42.684;23.372;2022-08-19T04:23:53;94862.81;;;24.16;75.86
12626;BME280;6378;42.684;23.372;2022-08-19T04:26:22;94871.78;;;24.45;72.41
12626;BME280;6378;42.684;23.372;2022-08-19T04:28:49;94878.31;;;24.51;71.38
12626;BME280;6378;42.684;23.372;2022-08-19T04:31:24;94873.03;;;25.20;67.56
12626;BME280;6378;42.684;23.372;2022-08-19T04:33:57;94874.09;;;25.35;67.63
12626;BME280;6378;42.684;23.372;2022-08-19T04:36:34;94875.09;;;25.76;65.18
12626;BME280;6378;42.684;23.372;2022-08-19T04:39:05;94879.09;;;25.62;63.88
12626;BME280;6378;42.684;23.372;2022-08-19T04:41:31;94876.84;;;26.48;58.80
12626;BME280;6378;42.684;23.372;2022-08-19T04:44:15;94882.16;;;26.95;55.70
12626;BME280;6378;42.684;23.372;2022-08-19T04:46:43;94875.47;;;26.83;55.82
12626;BME280;6378;42.684;23.372;2022-08-19T04:49:09;94874.00;;;26.91;55.85
12626;BME280;6378;42.684;23.372;2022-08-19T04:51:35;94868.06;;;27.02;55.79
12626;BME280;6378;42.684;23.372;2022-08-19T04:54:02;94874.88;;;26.26;57.86
12626;BME280;6378;42.684;23.372;2022-08-19T04:56:29;94877.84;;;26.94;55.56
12626;BME280;6378;42.684;23.372;2022-08-19T04:58:56;94882.19;;;27.71;52.55
12626;BME280;6378;42.684;23.372;2022-08-19T05:01:27;94875.91;;;28.25;48.79
12626;BME280;6378;42.684;23.372;2022-08-19T05:03:54;94882.97;;;28.35;47.12
12626;BME280;6378;42.684;23.372;2022-08-19T05:06:21;94884.72;;;27.38;50.29
12626;BME280;6378;42.684;23.372;2022-08-19T05:08:47;94887.28;;;27.73;50.27
12626;BME280;6378;42.684;23.372;2022-08-19T05:11:22;94888.81;;;27.83;49.92
12626;BME280;6378;42.684;23.372;2022-08-19T05:13:49;94887.72;;;28.35;48.35
12626;BME280;6378;42.684;23.372;2022-08-19T05:16:16;94871.00;;;28.29;48.56
12626;BME280;6378;42.684;23.372;2022-08-19T05:18:42;94882.56;;;28.79;46.95
12626;BME280;6378;42.684;23.372;2022-08-19T05:21:27;94879.06;;;29.11;46.10
12626;BME280;6378;42.684;23.372;2022-08-19T05:24:12;94886.22;;;29.27;45.08
12626;BME280;6378;42.684;23.372;2022-08-19T05:26:43;94867.56;;;29.37;44.33
12626;BME280;6378;42.684;23.372;2022-08-19T05:29:12;94887.91;;;29.57;43.89
12626;BME280;6378;42.684;23.372;2022-08-19T05:31:38;94894.97;;;29.82;43.61
12626;BME280;6378;42.684;23.372;2022-08-19T05:34:04;94891.72;;;30.46;42.19
12626;BME280;6378;42.684;23.372;2022-08-19T05:36:39;94886.00;;;30.26;42.34
12626;BME280;6378;42.684;23.372;2022-08-19T05:39:07;94884.94;;;29.85;42.95
12626;BME280;6378;42.684;23.372;2022-08-19T05:41:33;94890.31;;;29.88;42.40
12626;BME280;6378;42.684;23.372;2022-08-19T05:44:02;94895.09;;;30.26;41.81
12626;BME280;6378;42.684;23.372;2022-08-19T05:46:32;94887.41;;;29.83;43.00
12626;BME280;6378;42.684;23.372;2022-08-19T05:48:58;94885.78;;;30.00;43.03
12626;BME280;6378;42.684;23.372;2022-08-19T05:51:24;94884.63;;;30.06;42.72
12626;BME280;6378;42.684;23.372;2022-08-19T05:53:50;94890.88;;;29.21;45.01
12626;BME280;6378;42.684;23.372;2022-08-19T05:56:16;94887.81;;;28.77;46.80
12626;BME280;6378;42.684;23.372;2022-08-19T05:58:43;94887.72;;;29.37;45.53
12626;BME280;6378;42.684;23.372;2022-08-19T06:01:13;94889.25;;;29.86;43.40
12626;BME280;6378;42.684;23.372;2022-08-19T06:03:38;94877.66;;;29.87;43.29
12626;BME280;6378;42.684;23.372;2022-08-19T06:06:05;94888.59;;;29.67;43.89
12626;BME280;6378;42.684;23.372;2022-08-19T06:08:31;94887.56;;;29.64;44.71
12626;BME280;6378;42.684;23.372;2022-08-19T06:10:56;94897.28;;;29.84;43.55
12626;BME280;6378;42.684;23.372;2022-08-19T06:13:22;94884.91;;;29.70;43.37
12626;BME280;6378;42.684;23.372;2022-08-19T06:15:50;94904.09;;;30.21;42.77
12626;BME280;6378;42.684;23.372;2022-08-19T06:18:16;94900.50;;;30.44;41.90
12626;BME280;6378;42.684;23.372;2022-08-19T06:20:42;94902.22;;;30.42;41.83
12626;BME280;6378;42.684;23.372;2022-08-19T06:23:08;94897.44;;;30.42;41.62
12626;BME280;6378;42.684;23.372;2022-08-19T06:25:34;94904.84;;;30.75;40.78
12626;BME280;6378;42.684;23.372;2022-08-19T06:28:01;94897.72;;;30.44;41.88
12626;BME280;6378;42.684;23.372;2022-08-19T06:30:27;94889.44;;;29.58;44.16
12626;BME280;6378;42.684;23.372;2022-08-19T06:32:53;94895.06;;;29.49;43.18
12626;BME280;6378;42.684;23.372;2022-08-19T06:35:19;94897.81;;;29.73;43.26
12626;BME280;6378;42.684;23.372;2022-08-19T06:37:44;94898.47;;;29.92;43.56
12626;BME280;6378;42.684;23.372;2022-08-19T06:40:10;94893.81;;;29.50;44.03
12626;BME280;6378;42.684;23.372;2022-08-19T06:42:37;94891.63;;;29.21;44.87
12626;BME280;6378;42.684;23.372;2022-08-19T06:45:04;94892.66;;;29.66;43.16
12626;BME280;6378;42.684;23.372;2022-08-19T06:47:31;94899.25;;;29.45;43.19
12626;BME280;6378;42.684;23.372;2022-08-19T06:49:58;94894.28;;;29.73;43.13
12626;BME280;6378;42.684;23.372;2022-08-19T06:52:31;94898.31;;;29.95;43.26
12626;BME280;6378;42.684;23.372;2022-08-19T06:54:58;94899.31;;;30.22;42.46
12626;BME280;6378;42.684;23.372;2022-08-19T06:57:24;94904.75;;;30.16;42.57
12626;BME280;6378;42.684;23.372;2022-08-19T06:59:50;94902.13;;;30.36;41.68
12626;BME280;6378;42.684;23.372;2022-08-19T07:02:15;94892.56;;;30.81;40.06
12626;BME280;6378;42.684;23.372;2022-08-19T07:04:40;94901.22;;;30.83;41.06
12626;BME280;6378;42.684;23.372;2022-08-19T07:07:11;94899.88;;;30.11;40.78
12626;BME280;6378;42.684;23.372;2022-08-19T07:09:53;94911.16;;;30.07;41.81
12626;BME280;6378;42.684;23.372;2022-08-19T07:13:04;94907.34;;;30.05;42.98
12626;BME280;6378;42.684;23.372;2022-08-19T07:15:42;94913.78;;;30.26;42.45
12626;BME280;6378;42.684;23.372;2022-08-19T07:24:42;94906.03;;;30.15;42.18
12626;BME280;6378;42.684;23.372;2022-08-19T07:30:38;94902.25;;;30.57;42.43
12626;BME280;6378;42.684;23.372;2022-08-19T07:33:34;94899.88;;;30.64;41.35
12626;BME280;6378;42.684;23.372;2022-08-19T07:36:06;94898.13;;;30.96;41.42
12626;BME280;6378;42.684;23.372;2022-08-19T07:39:25;94893.63;;;30.84;41.85
12626;BME280;6378;42.684;23.372;2022-08-19T07:45:11;94895.34;;;30.81;40.60
12626;BME280;6378;42.684;23.372;2022-08-19T07:47:40;94900.44;;;30.68;40.46
12626;BME280;6378;42.684;23.372;2022-08-19T07:50:26;94896.69;;;30.86;39.57
12626;BME280;6378;42.684;23.372;2022-08-19T07:53:04;94904.94;;;30.66;40.53
12626;BME280;6378;42.684;23.372;2022-08-19T07:55:35;94897.56;;;30.77;40.40
12626;BME280;6378;42.684;23.372;2022-08-19T07:58:39;94898.31;;;31.22;39.66
12626;BME280;6378;42.684;23.372;2022-08-19T08:04:21;94891.38;;;31.52;39.17
12626;BME280;6378;42.684;23.372;2022-08-19T08:17:45;94895.88;;;32.71;36.62
12626;BME280;6378;42.684;23.372;2022-08-19T08:23:14;94890.53;;;32.67;35.93
12626;BME280;6378;42.684;23.372;2022-08-19T08:25:51;94887.50;;;32.71;35.72
12626;BME280;6378;42.684;23.372;2022-08-19T08:28:35;94879.38;;;32.21;36.45
12626;BME280;6378;42.684;23.372;2022-08-19T08:31:02;94888.16;;;32.35;36.25
12626;BME280;6378;42.684;23.372;2022-08-19T08:33:28;94882.47;;;32.75;36.22
12626;BME280;6378;42.684;23.372;2022-08-19T08:35:57;94875.72;;;33.19;35.26
12626;BME280;6378;42.684;23.372;2022-08-19T08:38:23;94879.06;;;33.65;33.83
12626;BME280;6378;42.684;23.372;2022-08-19T08:40:57;94875.72;;;33.56;33.78
12626;BME280;6378;42.684;23.372;2022-08-19T08:43:56;94874.34;;;33.77;32.91
12626;BME280;6378;42.684;23.372;2022-08-19T08:46:42;94870.56;;;33.85;32.76
12626;BME280;6378;42.684;23.372;2022-08-19T08:49:49;94868.53;;;33.86;33.52
12626;BME280;6378;42.684;23.372;2022-08-19T08:56:02;94860.41;;;33.40;33.59
12626;BME280;6378;42.684;23.372;2022-08-19T08:58:33;94859.53;;;33.23;33.21
12626;BME280;6378;42.684;23.372;2022-08-19T09:01:09;94854.97;;;33.25;33.65
12626;BME280;6378;42.684;23.372;2022-08-19T09:03:58;94852.91;;;33.57;33.14
12626;BME280;6378;42.684;23.372;2022-08-19T09:15:42;94843.97;;;34.01;30.81
12626;BME280;6378;42.684;23.372;2022-08-19T09:18:09;94844.28;;;34.20;30.54
12626;BME280;6378;42.684;23.372;2022-08-19T09:20:41;94835.69;;;34.51;30.85
12626;BME280;6378;42.684;23.372;2022-08-19T09:23:15;94834.72;;;34.88;29.98
12626;BME280;6378;42.684;23.372;2022-08-19T09:25:41;94838.28;;;35.22;28.35
12626;BME280;6378;42.684;23.372;2022-08-19T09:28:07;94823.00;;;35.06;28.90
12626;BME280;6378;42.684;23.372;2022-08-19T09:30:39;94827.81;;;34.61;28.93
12626;BME280;6378;42.684;23.372;2022-08-19T09:33:05;94830.09;;;34.57;28.31
12626;BME280;6378;42.684;23.372;2022-08-19T09:35:32;94824.81;;;34.75;28.00
12626;BME280;6378;42.684;23.372;2022-08-19T09:37:58;94822.00;;;34.75;27.70
12626;BME280;6378;42.684;23.372;2022-08-19T09:40:25;94823.78;;;34.67;27.92
12626;BME280;6378;42.684;23.372;2022-08-19T09:43:16;94829.09;;;34.65;26.38
12626;BME280;6378;42.684;23.372;2022-08-19T09:45:42;94819.47;;;34.94;26.80
12626;BME280;6378;42.684;23.372;2022-08-19T09:48:08;94822.53;;;35.18;27.09
12626;BME280;6378;42.684;23.372;2022-08-19T09:50:34;94820.25;;;34.89;25.93
12626;BME280;6378;42.684;23.372;2022-08-19T09:53:03;94816.69;;;34.77;25.77
12626;BME280;6378;42.684;23.372;2022-08-19T09:55:31;94823.53;;;34.88;25.58
12626;BME280;6378;42.684;23.372;2022-08-19T09:57:56;94809.81;;;34.73;24.97
12626;BME280;6378;42.684;23.372;2022-08-19T10:00:22;94794.53;;;34.35;25.37
12626;BME280;6378;42.684;23.372;2022-08-19T10:02:47;94799.63;;;34.87;25.84
12626;BME280;6378;42.684;23.372;2022-08-19T10:05:13;94806.75;;;34.54;25.24
12626;BME280;6378;42.684;23.372;2022-08-19T10:07:57;94797.84;;;34.45;25.48
12626;BME280;6378;42.684;23.372;2022-08-19T10:10:22;94799.13;;;34.49;25.52
12626;BME280;6378;42.684;23.372;2022-08-19T10:12:47;94791.25;;;34.70;25.54
12626;BME280;6378;42.684;23.372;2022-08-19T10:15:13;94767.56;;;34.65;25.79
12626;BME280;6378;42.684;23.372;2022-08-19T10:17:39;94792.22;;;35.00;25.42
12626;BME280;6378;42.684;23.372;2022-08-19T10:20:05;94791.47;;;35.11;25.69
12626;BME280;6378;42.684;23.372;2022-08-19T10:22:31;94789.97;;;34.54;25.66
12626;BME280;6378;42.684;23.372;2022-08-19T10:24:57;94786.41;;;34.82;25.96
12626;BME280;6378;42.684;23.372;2022-08-19T10:27:23;94773.44;;;34.51;25.75
12626;BME280;6378;42.684;23.372;2022-08-19T10:29:49;94779.53;;;34.60;26.18
12626;BME280;6378;42.684;23.372;2022-08-19T10:32:17;94784.63;;;34.95;25.85
12626;BME280;6378;42.684;23.372;2022-08-19T10:34:42;94762.00;;;34.65;26.03
12626;BME280;6378;42.684;23.372;2022-08-19T10:37:08;94780.28;;;34.55;26.20
12626;BME280;6378;42.684;23.372;2022-08-19T10:39:35;94776.00;;;34.54;25.76
12626;BME280;6378;42.684;23.372;2022-08-19T10:42:05;94770.53;;;33.89;26.76
12626;BME280;6378;42.684;23.372;2022-08-19T10:44:32;94759.91;;;34.05;26.88
12626;BME280;6378;42.684;23.372;2022-08-19T10:47:01;94767.28;;;34.13;26.85
12626;BME280;6378;42.684;23.372;2022-08-19T10:49:26;94767.06;;;34.28;27.04
12626;BME280;6378;42.684;23.372;2022-08-19T10:51:52;94772.94;;;34.63;26.55
12626;BME280;6378;42.684;23.372;2022-08-19T10:54:36;94759.97;;;34.71;26.17
12626;BME280;6378;42.684;23.372;2022-08-19T10:57:20;94762.28;;;34.67;26.41
12626;BME280;6378;42.684;23.372;2022-08-19T10:59:49;94762.75;;;34.94;26.19
12626;BME280;6378;42.684;23.372;2022-08-19T11:02:15;94765.53;;;35.05;26.12
12626;BME280;6378;42.684;23.372;2022-08-19T11:04:40;94758.16;;;35.07;26.22
12626;BME280;6378;42.684;23.372;2022-08-19T11:07:07;94751.03;;;35.01;25.83
12626;BME280;6378;42.684;23.372;2022-08-19T11:09:38;94754.88;;;34.98;26.56
12626;BME280;6378;42.684;23.372;2022-08-19T11:12:04;94752.78;;;35.09;26.62
12626;BME280;6378;42.684;23.372;2022-08-19T11:14:31;94757.38;;;35.24;26.46
12626;BME280;6378;42.684;23.372;2022-08-19T11:16:58;94760.41;;;35.31;26.72
12626;BME280;6378;42.684;23.372;2022-08-19T11:19:23;94750.25;;;35.28;25.82
12626;BME280;6378;42.684;23.372;2022-08-19T11:21:50;94748.22;;;35.12;26.01
12626;BME280;6378;42.684;23.372;2022-08-19T11:24:19;94762.13;;;35.40;25.56
12626;BME280;6378;42.684;23.372;2022-08-19T11:26:46;94757.09;;;35.33;25.49
12626;BME280;6378;42.684;23.372;2022-08-19T11:29:13;94752.75;;;35.37;25.92
12626;BME280;6378;42.684;23.372;2022-08-19T11:31:45;94751.25;;;35.14;25.88
12626;BME280;6378;42.684;23.372;2022-08-19T11:34:14;94737.06;;;34.90;26.10
12626;BME280;6378;42.684;23.372;2022-08-19T11:36:42;94736.28;;;35.06;26.43
12626;BME280;6378;42.684;23.372;2022-08-19T11:39:10;94735.28;;;35.03;25.88
12626;BME280;6378;42.684;23.372;2022-08-19T11:41:36;94726.38;;;34.99;26.10
12626;BME280;6378;42.684;23.372;2022-08-19T11:44:02;94717.19;;;35.10;26.17
12626;BME280;6378;42.684;23.372;2022-08-19T11:46:29;94715.63;;;35.31;25.76
12626;BME280;6378;42.684;23.372;2022-08-19T11:48:56;94733.81;;;35.54;25.62
12626;BME280;6378;42.684;23.372;2022-08-19T11:51:23;94727.84;;;35.28;26.08
12626;BME280;6378;42.684;23.372;2022-08-19T11:53:53;94717.66;;;35.25;26.30
12626;BME280;6378;42.684;23.372;2022-08-19T11:56:20;94724.59;;;35.02;26.39
12626;BME280;6378;42.684;23.372;2022-08-19T11:58:46;94704.81;;;34.72;26.58
12626;BME280;6378;42.684;23.372;2022-08-19T12:01:13;94717.22;;;34.99;26.87
12626;BME280;6378;42.684;23.372;2022-08-19T12:03:41;94714.38;;;35.10;26.51
12626;BME280;6378;42.684;23.372;2022-08-19T12:06:10;94709.03;;;35.12;26.58
12626;BME280;6378;42.684;23.372;2022-08-19T12:08:37;94701.16;;;35.05;25.60
12626;BME280;6378;42.684;23.372;2022-08-19T12:11:04;94698.97;;;34.70;26.59
12626;BME280;6378;42.684;23.372;2022-08-19T12:13:30;94707.59;;;34.83;26.30
12626;BME280;6378;42.684;23.372;2022-08-19T12:15:56;94707.81;;;34.96;26.54
12626;BME280;6378;42.684;23.372;2022-08-19T12:18:23;94694.13;;;34.76;26.49
12626;BME280;6378;42.684;23.372;2022-08-19T12:20:53;94692.59;;;34.81;26.30
12626;BME280;6378;42.684;23.372;2022-08-19T12:23:20;94680.41;;;34.56;27.15
12626;BME280;6378;42.684;23.372;2022-08-19T12:25:47;94682.19;;;34.75;26.70
12626;BME280;6378;42.684;23.372;2022-08-19T12:28:21;94665.59;;;35.00;26.32
12626;BME280;6378;42.684;23.372;2022-08-19T12:30:48;94679.25;;;35.14;27.47
12626;BME280;6378;42.684;23.372;2022-08-19T12:33:15;94673.59;;;35.42;26.29
12626;BME280;6378;42.684;23.372;2022-08-19T12:35:42;94670.47;;;35.51;26.19
12626;BME280;6378;42.684;23.372;2022-08-19T12:38:09;94668.16;;;35.55;26.67
12626;BME280;6378;42.684;23.372;2022-08-19T12:40:34;94654.91;;;35.04;26.07
12626;BME280;6378;42.684;23.372;2022-08-19T12:43:00;94658.75;;;34.90;26.28
12626;BME280;6378;42.684;23.372;2022-08-19T12:45:25;94654.47;;;34.83;26.53
12626;BME280;6378;42.684;23.372;2022-08-19T12:47:51;94658.19;;;35.13;26.42
12626;BME280;6378;42.684;23.372;2022-08-19T12:50:18;94657.28;;;34.77;26.25
12626;BME280;6378;42.684;23.372;2022-08-19T12:52:44;94667.97;;;34.73;27.17
12626;BME280;6378;42.684;23.372;2022-08-19T12:55:10;94666.44;;;34.78;26.82
12626;BME280;6378;42.684;23.372;2022-08-19T12:57:36;94653.44;;;34.81;26.33
12626;BME280;6378;42.684;23.372;2022-08-19T13:00:20;94655.53;;;34.74;26.81
12626;BME280;6378;42.684;23.372;2022-08-19T13:02:47;94652.03;;;35.15;26.57
12626;BME280;6378;42.684;23.372;2022-08-19T13:05:22;94654.63;;;35.18;26.43
12626;BME280;6378;42.684;23.372;2022-08-19T13:07:49;94648.03;;;34.99;26.59
12626;BME280;6378;42.684;23.372;2022-08-19T13:10:18;94637.66;;;34.94;26.03
12626;BME280;6378;42.684;23.372;2022-08-19T13:12:46;94644.44;;;35.10;25.97
12626;BME280;6378;42.684;23.372;2022-08-19T13:15:13;94652.06;;;35.09;26.44
12626;BME280;6378;42.684;23.372;2022-08-19T13:17:39;94648.88;;;34.83;26.72
12626;BME280;6378;42.684;23.372;2022-08-19T13:20:06;94647.56;;;34.90;26.83
12626;BME280;6378;42.684;23.372;2022-08-19T13:22:33;94630.84;;;34.78;26.42
12626;BME280;6378;42.684;23.372;2022-08-19T13:25:01;94639.63;;;35.05;26.23
12626;BME280;6378;42.684;23.372;2022-08-19T13:27:27;94639.09;;;35.17;26.22
12626;BME280;6378;42.684;23.372;2022-08-19T13:29:54;94636.03;;;35.21;26.16
12626;BME280;6378;42.684;23.372;2022-08-19T13:32:38;94633.53;;;35.06;26.12
12626;BME280;6378;42.684;23.372;2022-08-19T13:35:22;94616.88;;;34.73;26.53
12626;BME280;6378;42.684;23.372;2022-08-19T13:37:47;94637.41;;;34.87;26.73
12626;BME280;6378;42.684;23.372;2022-08-19T13:40:19;94623.16;;;34.85;26.65
12626;BME280;6378;42.684;23.372;2022-08-19T13:42:48;94629.03;;;34.87;26.14
12626;BME280;6378;42.684;23.372;2022-08-19T13:45:16;94617.53;;;34.96;25.74
12626;BME280;6378;42.684;23.372;2022-08-19T13:47:49;94625.34;;;35.14;26.09
12626;BME280;6378;42.684;23.372;2022-08-19T13:50:20;94597.63;;;35.10;25.63
12626;BME280;6378;42.684;23.372;2022-08-19T13:52:46;94621.09;;;35.02;25.50